sensor_id;sensor_type;location;lat;lon;timestamp;P1;durP1;ratioP1;P2;durP2;ratioP2
68108;SDS011;54893;49.864;19.084;2023-07-09T00:03:24;13.25;;;7.20;;
68108;SDS011;54893;49.864;19.084;2023-07-09T00:08:25;12.73;;;7.00;;
68108;SDS011;54893;49.864;19.084;2023-07-09T00:13:28;10.40;;;6.40;;
68108;SDS011;54893;49.864;19.084;2023-07-09T00:18:28;10.70;;;6.30;;
68108;SDS011;54893;49.864;19.084;2023-07-09T00:23:29;10.03;;;6.10;;
68108;SDS011;54893;49.864;19.084;2023-07-09T00:28:29;11.53;;;6.40;;
68108;SDS011;54893;49.864;19.084;2023-07-09T00:33:30;11.90;;;6.78;;
68108;SDS011;54893;49.864;19.084;2023-07-09T00:38:31;12.67;;;6.67;;
68108;SDS011;54893;49.864;19.084;2023-07-09T00:43:38;12.88;;;6.88;;
68108;SDS011;54893;49.864;19.084;2023-07-09T00:48:39;11.70;;;7.07;;
68108;SDS011;54893;49.864;19.084;2023-07-09T00:53:40;11.40;;;6.77;;
68108;SDS011;54893;49.864;19.084;2023-07-09T00:58:45;11.60;;;6.53;;
68108;SDS011;54893;49.864;19.084;2023-07-09T01:03:51;12.40;;;7.00;;
68108;SDS011;54893;49.864;19.084;2023-07-09T01:08:59;11.43;;;6.90;;
68108;SDS011;54893;49.864;19.084;2023-07-09T01:14:01;11.40;;;6.43;;
68108;SDS011;54893;49.864;19.084;2023-07-09T01:19:04;10.77;;;5.60;;
68108;SDS011;54893;49.864;19.084;2023-07-09T01:24:12;14.07;;;6.13;;
68108;SDS011;54893;49.864;19.084;2023-07-09T01:29:19;7.93;;;5.00;;
68108;SDS011;54893;49.864;19.084;2023-07-09T01:34:20;10.70;;;5.50;;
68108;SDS011;54893;49.864;19.084;2023-07-09T01:39:21;9.23;;;5.30;;
68108;SDS011;54893;49.864;19.084;2023-07-09T01:44:23;11.10;;;5.50;;
68108;SDS011;54893;49.864;19.084;2023-07-09T01:49:23;10.60;;;5.50;;
68108;SDS011;54893;49.864;19.084;2023-07-09T01:54:27;10.23;;;5.63;;
68108;SDS011;54893;49.864;19.084;2023-07-09T01:59:31;9.35;;;5.30;;
68108;SDS011;54893;49.864;19.084;2023-07-09T02:04:33;9.95;;;5.93;;
68108;SDS011;54893;49.864;19.084;2023-07-09T02:09:33;11.40;;;6.00;;
68108;SDS011;54893;49.864;19.084;2023-07-09T02:14:34;11.90;;;7.03;;
68108;SDS011;54893;49.864;19.084;2023-07-09T02:19:34;13.17;;;6.73;;
68108;SDS011;54893;49.864;19.084;2023-07-09T02:24:34;17.63;;;7.20;;
68108;SDS011;54893;49.864;19.084;2023-07-09T02:29:35;11.57;;;7.23;;
68108;SDS011;54893;49.864;19.084;2023-07-09T02:34:36;14.38;;;7.28;;
68108;SDS011;54893;49.864;19.084;2023-07-09T02:39:36;12.80;;;7.43;;
68108;SDS011;54893;49.864;19.084;2023-07-09T02:44:37;12.63;;;7.20;;
68108;SDS011;54893;49.864;19.084;2023-07-09T02:49:38;11.90;;;6.70;;
68108;SDS011;54893;49.864;19.084;2023-07-09T02:54:38;12.35;;;6.22;;
68108;SDS011;54893;49.864;19.084;2023-07-09T02:59:39;11.23;;;6.60;;
68108;SDS011;54893;49.864;19.084;2023-07-09T03:04:39;10.43;;;6.43;;
68108;SDS011;54893;49.864;19.084;2023-07-09T03:09:40;11.73;;;6.97;;
68108;SDS011;54893;49.864;19.084;2023-07-09T03:14:40;12.73;;;7.33;;
68108;SDS011;54893;49.864;19.084;2023-07-09T03:19:40;11.83;;;6.90;;
68108;SDS011;54893;49.864;19.084;2023-07-09T03:24:41;11.90;;;7.27;;
68108;SDS011;54893;49.864;19.084;2023-07-09T03:29:41;11.83;;;6.87;;
68108;SDS011;54893;49.864;19.084;2023-07-09T03:34:42;11.83;;;6.90;;
68108;SDS011;54893;49.864;19.084;2023-07-09T03:39:42;14.23;;;6.70;;
68108;SDS011;54893;49.864;19.084;2023-07-09T03:44:42;12.60;;;7.17;;
68108;SDS011;54893;49.864;19.084;2023-07-09T03:49:43;13.27;;;7.20;;
68108;SDS011;54893;49.864;19.084;2023-07-09T03:54:43;10.77;;;6.50;;
68108;SDS011;54893;49.864;19.084;2023-07-09T03:59:44;10.50;;;6.40;;
68108;SDS011;54893;49.864;19.084;2023-07-09T04:04:44;12.03;;;6.73;;
68108;SDS011;54893;49.864;19.084;2023-07-09T04:09:45;11.85;;;6.80;;
68108;SDS011;54893;49.864;19.084;2023-07-09T04:14:45;12.13;;;6.70;;
68108;SDS011;54893;49.864;19.084;2023-07-09T04:19:45;9.23;;;6.03;;
68108;SDS011;54893;49.864;19.084;2023-07-09T04:24:46;10.02;;;6.30;;
68108;SDS011;54893;49.864;19.084;2023-07-09T04:29:47;10.30;;;6.23;;
68108;SDS011;54893;49.864;19.084;2023-07-09T04:34:48;9.25;;;6.13;;
68108;SDS011;54893;49.864;19.084;2023-07-09T04:39:48;12.03;;;6.27;;
68108;SDS011;54893;49.864;19.084;2023-07-09T04:44:49;10.37;;;6.37;;
68108;SDS011;54893;49.864;19.084;2023-07-09T04:49:49;11.10;;;6.20;;
68108;SDS011;54893;49.864;19.084;2023-07-09T04:54:50;9.33;;;5.60;;
68108;SDS011;54893;49.864;19.084;2023-07-09T04:59:50;9.00;;;5.43;;
68108;SDS011;54893;49.864;19.084;2023-07-09T05:04:51;8.43;;;5.20;;
68108;SDS011;54893;49.864;19.084;2023-07-09T05:09:51;8.87;;;5.30;;
68108;SDS011;54893;49.864;19.084;2023-07-09T05:14:54;10.02;;;6.00;;
68108;SDS011;54893;49.864;19.084;2023-07-09T05:19:56;8.98;;;5.93;;
68108;SDS011;54893;49.864;19.084;2023-07-09T05:24:56;10.57;;;6.03;;
68108;SDS011;54893;49.864;19.084;2023-07-09T05:29:57;9.15;;;5.25;;
68108;SDS011;54893;49.864;19.084;2023-07-09T05:34:58;9.07;;;5.75;;
68108;SDS011;54893;49.864;19.084;2023-07-09T05:39:58;7.50;;;5.20;;
68108;SDS011;54893;49.864;19.084;2023-07-09T05:44:58;8.13;;;5.73;;
68108;SDS011;54893;49.864;19.084;2023-07-09T05:49:59;10.50;;;5.50;;
68108;SDS011;54893;49.864;19.084;2023-07-09T05:54:59;8.80;;;5.67;;
68108;SDS011;54893;49.864;19.084;2023-07-09T06:00:00;7.83;;;5.50;;
68108;SDS011;54893;49.864;19.084;2023-07-09T06:05:00;10.13;;;5.47;;
68108;SDS011;54893;49.864;19.084;2023-07-09T06:10:01;8.70;;;5.60;;
68108;SDS011;54893;49.864;19.084;2023-07-09T06:15:02;8.20;;;5.67;;
68108;SDS011;54893;49.864;19.084;2023-07-09T06:20:02;9.52;;;6.07;;
68108;SDS011;54893;49.864;19.084;2023-07-09T06:25:04;11.03;;;5.70;;
68108;SDS011;54893;49.864;19.084;2023-07-09T06:30:05;7.85;;;5.47;;
68108;SDS011;54893;49.864;19.084;2023-07-09T06:35:06;7.50;;;5.17;;
68108;SDS011;54893;49.864;19.084;2023-07-09T06:40:07;7.60;;;4.72;;
68108;SDS011;54893;49.864;19.084;2023-07-09T06:45:09;7.87;;;5.20;;
68108;SDS011;54893;49.864;19.084;2023-07-09T06:50:11;6.90;;;5.03;;
68108;SDS011;54893;49.864;19.084;2023-07-09T06:55:12;15.20;;;5.53;;
68108;SDS011;54893;49.864;19.084;2023-07-09T07:00:12;7.13;;;5.17;;
68108;SDS011;54893;49.864;19.084;2023-07-09T07:05:13;8.00;;;5.30;;
68108;SDS011;54893;49.864;19.084;2023-07-09T07:10:13;9.10;;;5.50;;
68108;SDS011;54893;49.864;19.084;2023-07-09T07:15:15;8.30;;;5.30;;
68108;SDS011;54893;49.864;19.084;2023-07-09T07:20:17;9.23;;;5.43;;
68108;SDS011;54893;49.864;19.084;2023-07-09T07:25:18;9.02;;;5.70;;
68108;SDS011;54893;49.864;19.084;2023-07-09T07:30:18;8.23;;;5.37;;
68108;SDS011;54893;49.864;19.084;2023-07-09T07:35:19;6.90;;;5.00;;
68108;SDS011;54893;49.864;19.084;2023-07-09T07:40:19;9.87;;;5.00;;
68108;SDS011;54893;49.864;19.084;2023-07-09T07:45:20;7.50;;;5.40;;
68108;SDS011;54893;49.864;19.084;2023-07-09T07:50:21;6.15;;;4.40;;
68108;SDS011;54893;49.864;19.084;2023-07-09T07:55:21;6.57;;;4.30;;
68108;SDS011;54893;49.864;19.084;2023-07-09T08:00:22;6.30;;;4.03;;
68108;SDS011;54893;49.864;19.084;2023-07-09T08:05:22;7.10;;;4.00;;
68108;SDS011;54893;49.864;19.084;2023-07-09T08:10:23;6.60;;;3.95;;
68108;SDS011;54893;49.864;19.084;2023-07-09T08:15:24;5.97;;;3.77;;
68108;SDS011;54893;49.864;19.084;2023-07-09T08:20:24;5.33;;;3.77;;
68108;SDS011;54893;49.864;19.084;2023-07-09T08:25:25;5.40;;;3.77;;
68108;SDS011;54893;49.864;19.084;2023-07-09T08:30:25;5.80;;;3.97;;
68108;SDS011;54893;49.864;19.084;2023-07-09T08:35:25;7.80;;;4.00;;
68108;SDS011;54893;49.864;19.084;2023-07-09T08:40:26;7.27;;;3.90;;
68108;SDS011;54893;49.864;19.084;2023-07-09T08:50:37;6.10;;;3.92;;
68108;SDS011;54893;49.864;19.084;2023-07-09T08:55:41;7.57;;;4.40;;
68108;SDS011;54893;49.864;19.084;2023-07-09T09:00:53;7.93;;;4.38;;
68108;SDS011;54893;49.864;19.084;2023-07-09T09:05:56;5.80;;;4.10;;
68108;SDS011;54893;49.864;19.084;2023-07-09T09:10:58;6.83;;;3.97;;
68108;SDS011;54893;49.864;19.084;2023-07-09T09:26:35;6.20;;;4.22;;
68108;SDS011;54893;49.864;19.084;2023-07-09T09:31:38;7.80;;;4.65;;
68108;SDS011;54893;49.864;19.084;2023-07-09T09:36:40;6.33;;;4.43;;
68108;SDS011;54893;49.864;19.084;2023-07-09T09:41:41;5.80;;;4.20;;
68108;SDS011;54893;49.864;19.084;2023-07-09T09:46:43;7.20;;;4.43;;
68108;SDS011;54893;49.864;19.084;2023-07-09T09:51:45;7.47;;;4.70;;
68108;SDS011;54893;49.864;19.084;2023-07-09T09:56:48;8.98;;;5.03;;
68108;SDS011;54893;49.864;19.084;2023-07-09T10:02:00;6.97;;;4.73;;
68108;SDS011;54893;49.864;19.084;2023-07-09T10:07:04;7.03;;;4.50;;
68108;SDS011;54893;49.864;19.084;2023-07-09T10:17:49;6.78;;;4.75;;
68108;SDS011;54893;49.864;19.084;2023-07-09T10:33:10;8.43;;;4.60;;
68108;SDS011;54893;49.864;19.084;2023-07-09T10:43:39;6.25;;;4.53;;
68108;SDS011;54893;49.864;19.084;2023-07-09T10:48:50;9.32;;;4.90;;
68108;SDS011;54893;49.864;19.084;2023-07-09T10:53:58;6.93;;;4.57;;
68108;SDS011;54893;49.864;19.084;2023-07-09T10:59:19;7.35;;;5.20;;
68108;SDS011;54893;49.864;19.084;2023-07-09T11:04:35;6.70;;;4.90;;
68108;SDS011;54893;49.864;19.084;2023-07-09T11:09:43;7.00;;;4.97;;
68108;SDS011;54893;49.864;19.084;2023-07-09T11:14:48;7.43;;;4.75;;
68108;SDS011;54893;49.864;19.084;2023-07-09T11:19:54;5.90;;;4.50;;
68108;SDS011;54893;49.864;19.084;2023-07-09T11:25:06;7.07;;;4.95;;
68108;SDS011;54893;49.864;19.084;2023-07-09T11:30:20;7.83;;;4.97;;
68108;SDS011;54893;49.864;19.084;2023-07-09T11:35:25;7.30;;;5.13;;
68108;SDS011;54893;49.864;19.084;2023-07-09T11:40:27;7.95;;;4.93;;
68108;SDS011;54893;49.864;19.084;2023-07-09T11:45:30;7.87;;;5.23;;
68108;SDS011;54893;49.864;19.084;2023-07-09T11:50:36;7.80;;;5.47;;
68108;SDS011;54893;49.864;19.084;2023-07-09T11:55:41;6.88;;;4.80;;
68108;SDS011;54893;49.864;19.084;2023-07-09T12:00:45;6.47;;;5.20;;
68108;SDS011;54893;49.864;19.084;2023-07-09T12:05:52;8.32;;;5.25;;
68108;SDS011;54893;49.864;19.084;2023-07-09T12:10:54;6.93;;;5.03;;
68108;SDS011;54893;49.864;19.084;2023-07-09T12:15:54;6.70;;;5.53;;
68108;SDS011;54893;49.864;19.084;2023-07-09T12:20:55;7.93;;;5.40;;
68108;SDS011;54893;49.864;19.084;2023-07-09T12:25:55;8.00;;;5.57;;
68108;SDS011;54893;49.864;19.084;2023-07-09T12:31:00;8.75;;;5.45;;
68108;SDS011;54893;49.864;19.084;2023-07-09T12:36:01;7.43;;;5.50;;
68108;SDS011;54893;49.864;19.084;2023-07-09T12:41:04;9.30;;;5.67;;
68108;SDS011;54893;49.864;19.084;2023-07-09T12:46:05;7.68;;;5.75;;
68108;SDS011;54893;49.864;19.084;2023-07-09T12:51:07;8.67;;;5.33;;
68108;SDS011;54893;49.864;19.084;2023-07-09T12:56:11;7.60;;;5.77;;
68108;SDS011;54893;49.864;19.084;2023-07-09T13:01:14;10.23;;;6.00;;
68108;SDS011;54893;49.864;19.084;2023-07-09T13:06:26;7.75;;;5.82;;
68108;SDS011;54893;49.864;19.084;2023-07-09T13:11:35;9.80;;;5.83;;
68108;SDS011;54893;49.864;19.084;2023-07-09T13:16:40;8.95;;;5.72;;
68108;SDS011;54893;49.864;19.084;2023-07-09T13:21:40;8.40;;;5.80;;
68108;SDS011;54893;49.864;19.084;2023-07-09T13:26:42;8.52;;;5.60;;
68108;SDS011;54893;49.864;19.084;2023-07-09T13:31:43;8.90;;;5.20;;
68108;SDS011;54893;49.864;19.084;2023-07-09T13:36:47;5.80;;;5.18;;
68108;SDS011;54893;49.864;19.084;2023-07-09T13:41:48;6.93;;;5.57;;
68108;SDS011;54893;49.864;19.084;2023-07-09T13:46:50;9.57;;;5.68;;
68108;SDS011;54893;49.864;19.084;2023-07-09T13:51:52;7.03;;;5.27;;
68108;SDS011;54893;49.864;19.084;2023-07-09T13:56:55;7.28;;;5.00;;
68108;SDS011;54893;49.864;19.084;2023-07-09T14:01:56;6.47;;;5.10;;
68108;SDS011;54893;49.864;19.084;2023-07-09T14:06:59;8.68;;;5.40;;
68108;SDS011;54893;49.864;19.084;2023-07-09T14:11:59;6.93;;;5.60;;
68108;SDS011;54893;49.864;19.084;2023-07-09T14:17:00;6.40;;;5.20;;
68108;SDS011;54893;49.864;19.084;2023-07-09T14:22:00;6.80;;;5.47;;
68108;SDS011;54893;49.864;19.084;2023-07-09T14:27:01;6.67;;;5.53;;
68108;SDS011;54893;49.864;19.084;2023-07-09T14:32:02;6.90;;;5.20;;
68108;SDS011;54893;49.864;19.084;2023-07-09T14:37:03;6.80;;;5.40;;
68108;SDS011;54893;49.864;19.084;2023-07-09T14:42:07;5.93;;;5.10;;
68108;SDS011;54893;49.864;19.084;2023-07-09T14:47:14;6.97;;;5.53;;
68108;SDS011;54893;49.864;19.084;2023-07-09T14:52:18;6.93;;;5.70;;
68108;SDS011;54893;49.864;19.084;2023-07-09T14:57:22;7.60;;;5.10;;
68108;SDS011;54893;49.864;19.084;2023-07-09T15:07:34;7.07;;;5.53;;
68108;SDS011;54893;49.864;19.084;2023-07-09T15:12:35;6.17;;;5.40;;
68108;SDS011;54893;49.864;19.084;2023-07-09T15:17:36;6.43;;;5.30;;
68108;SDS011;54893;49.864;19.084;2023-07-09T15:22:36;5.97;;;5.37;;
68108;SDS011;54893;49.864;19.084;2023-07-09T15:27:36;8.17;;;5.70;;
68108;SDS011;54893;49.864;19.084;2023-07-09T15:32:37;6.90;;;5.80;;
68108;SDS011;54893;49.864;19.084;2023-07-09T15:37:37;7.40;;;5.33;;
68108;SDS011;54893;49.864;19.084;2023-07-09T15:42:38;7.50;;;5.67;;
68108;SDS011;54893;49.864;19.084;2023-07-09T15:47:38;6.80;;;5.37;;
68108;SDS011;54893;49.864;19.084;2023-07-09T15:52:39;7.23;;;5.40;;
68108;SDS011;54893;49.864;19.084;2023-07-09T15:57:39;7.17;;;5.57;;
68108;SDS011;54893;49.864;19.084;2023-07-09T16:02:40;7.00;;;5.68;;
68108;SDS011;54893;49.864;19.084;2023-07-09T16:07:40;6.37;;;5.63;;
68108;SDS011;54893;49.864;19.084;2023-07-09T16:12:41;6.73;;;5.70;;
68108;SDS011;54893;49.864;19.084;2023-07-09T16:17:45;6.20;;;5.60;;
68108;SDS011;54893;49.864;19.084;2023-07-09T16:22:48;8.03;;;5.77;;
68108;SDS011;54893;49.864;19.084;2023-07-09T16:27:49;7.10;;;6.10;;
68108;SDS011;54893;49.864;19.084;2023-07-09T16:32:50;6.67;;;5.57;;
68108;SDS011;54893;49.864;19.084;2023-07-09T16:37:51;9.77;;;5.93;;
68108;SDS011;54893;49.864;19.084;2023-07-09T16:42:52;7.17;;;5.70;;
68108;SDS011;54893;49.864;19.084;2023-07-09T16:47:53;6.85;;;5.90;;
68108;SDS011;54893;49.864;19.084;2023-07-09T16:52:54;7.93;;;6.17;;
68108;SDS011;54893;49.864;19.084;2023-07-09T16:57:55;7.47;;;6.68;;
68108;SDS011;54893;49.864;19.084;2023-07-09T17:02:58;6.47;;;5.63;;
68108;SDS011;54893;49.864;19.084;2023-07-09T17:07:58;7.25;;;6.00;;
68108;SDS011;54893;49.864;19.084;2023-07-09T17:12:59;9.50;;;6.53;;
68108;SDS011;54893;49.864;19.084;2023-07-09T17:18:00;7.80;;;6.07;;
68108;SDS011;54893;49.864;19.084;2023-07-09T17:23:01;8.50;;;5.97;;
68108;SDS011;54893;49.864;19.084;2023-07-09T17:28:02;8.57;;;6.23;;
68108;SDS011;54893;49.864;19.084;2023-07-09T17:33:18;8.45;;;6.35;;
68108;SDS011;54893;49.864;19.084;2023-07-09T17:38:20;7.30;;;6.20;;
68108;SDS011;54893;49.864;19.084;2023-07-09T17:43:21;6.63;;;5.60;;
68108;SDS011;54893;49.864;19.084;2023-07-09T17:48:24;8.52;;;6.40;;
68108;SDS011;54893;49.864;19.084;2023-07-09T17:53:32;7.97;;;6.45;;
68108;SDS011;54893;49.864;19.084;2023-07-09T17:58:35;11.70;;;6.20;;
68108;SDS011;54893;49.864;19.084;2023-07-09T18:03:38;8.93;;;6.18;;
68108;SDS011;54893;49.864;19.084;2023-07-09T18:08:39;7.97;;;6.30;;
68108;SDS011;54893;49.864;19.084;2023-07-09T18:13:39;10.17;;;6.80;;
68108;SDS011;54893;49.864;19.084;2023-07-09T18:18:40;8.93;;;6.30;;
68108;SDS011;54893;49.864;19.084;2023-07-09T18:23:40;7.60;;;6.07;;
68108;SDS011;54893;49.864;19.084;2023-07-09T18:28:41;11.57;;;6.73;;
68108;SDS011;54893;49.864;19.084;2023-07-09T18:33:43;14.70;;;6.65;;
68108;SDS011;54893;49.864;19.084;2023-07-09T18:38:44;8.63;;;6.87;;
68108;SDS011;54893;49.864;19.084;2023-07-09T18:43:45;11.90;;;7.47;;
68108;SDS011;54893;49.864;19.084;2023-07-09T18:48:46;10.25;;;6.38;;
68108;SDS011;54893;49.864;19.084;2023-07-09T18:53:46;11.23;;;6.87;;
68108;SDS011;54893;49.864;19.084;2023-07-09T18:58:47;14.73;;;6.60;;
68108;SDS011;54893;49.864;19.084;2023-07-09T19:03:47;10.03;;;6.70;;
68108;SDS011;54893;49.864;19.084;2023-07-09T19:08:47;11.43;;;6.77;;
68108;SDS011;54893;49.864;19.084;2023-07-09T19:13:48;10.80;;;6.37;;
68108;SDS011;54893;49.864;19.084;2023-07-09T19:18:48;8.93;;;6.17;;
68108;SDS011;54893;49.864;19.084;2023-07-09T19:23:49;10.23;;;6.70;;
68108;SDS011;54893;49.864;19.084;2023-07-09T19:28:50;10.10;;;6.57;;
68108;SDS011;54893;49.864;19.084;2023-07-09T19:33:50;10.35;;;6.50;;
68108;SDS011;54893;49.864;19.084;2023-07-09T19:38:51;15.00;;;8.63;;
68108;SDS011;54893;49.864;19.084;2023-07-09T19:43:52;12.82;;;8.35;;
68108;SDS011;54893;49.864;19.084;2023-07-09T19:48:53;14.33;;;9.00;;
68108;SDS011;54893;49.864;19.084;2023-07-09T19:53:53;16.30;;;8.97;;
68108;SDS011;54893;49.864;19.084;2023-07-09T19:58:53;17.40;;;9.83;;
68108;SDS011;54893;49.864;19.084;2023-07-09T20:03:54;14.23;;;8.85;;
68108;SDS011;54893;49.864;19.084;2023-07-09T20:08:55;13.67;;;9.17;;
68108;SDS011;54893;49.864;19.084;2023-07-09T20:13:56;14.00;;;9.68;;
68108;SDS011;54893;49.864;19.084;2023-07-09T20:18:58;14.52;;;9.00;;
68108;SDS011;54893;49.864;19.084;2023-07-09T20:23:59;14.57;;;9.40;;
68108;SDS011;54893;49.864;19.084;2023-07-09T20:29:00;13.27;;;9.00;;
68108;SDS011;54893;49.864;19.084;2023-07-09T20:34:15;12.48;;;9.25;;
68108;SDS011;54893;49.864;19.084;2023-07-09T20:39:19;13.10;;;9.23;;
68108;SDS011;54893;49.864;19.084;2023-07-09T20:44:21;14.43;;;9.63;;
68108;SDS011;54893;49.864;19.084;2023-07-09T20:54:30;14.27;;;9.60;;
68108;SDS011;54893;49.864;19.084;2023-07-09T20:59:31;15.43;;;9.87;;
68108;SDS011;54893;49.864;19.084;2023-07-09T21:04:31;16.27;;;9.43;;
68108;SDS011;54893;49.864;19.084;2023-07-09T21:09:31;15.53;;;8.93;;
68108;SDS011;54893;49.864;19.084;2023-07-09T21:14:32;12.47;;;7.80;;
68108;SDS011;54893;49.864;19.084;2023-07-09T21:19:33;11.03;;;7.77;;
68108;SDS011;54893;49.864;19.084;2023-07-09T21:24:35;11.43;;;7.72;;
68108;SDS011;54893;49.864;19.084;2023-07-09T21:29:37;14.20;;;9.07;;
68108;SDS011;54893;49.864;19.084;2023-07-09T21:34:38;14.75;;;9.40;;
68108;SDS011;54893;49.864;19.084;2023-07-09T21:39:39;16.10;;;9.65;;
68108;SDS011;54893;49.864;19.084;2023-07-09T21:44:39;16.77;;;10.60;;
68108;SDS011;54893;49.864;19.084;2023-07-09T21:49:40;17.10;;;10.73;;
68108;SDS011;54893;49.864;19.084;2023-07-09T21:54:41;19.75;;;11.00;;
68108;SDS011;54893;49.864;19.084;2023-07-09T21:59:47;17.05;;;9.88;;
68108;SDS011;54893;49.864;19.084;2023-07-09T22:04:48;14.32;;;9.27;;
68108;SDS011;54893;49.864;19.084;2023-07-09T22:09:53;15.75;;;9.57;;
68108;SDS011;54893;49.864;19.084;2023-07-09T22:14:56;18.35;;;11.13;;
68108;SDS011;54893;49.864;19.084;2023-07-09T22:19:59;18.63;;;10.53;;
68108;SDS011;54893;49.864;19.084;2023-07-09T22:25:00;18.85;;;10.90;;
68108;SDS011;54893;49.864;19.084;2023-07-09T22:30:02;20.05;;;11.52;;
68108;SDS011;54893;49.864;19.084;2023-07-09T22:35:04;18.13;;;9.90;;
68108;SDS011;54893;49.864;19.084;2023-07-09T22:40:17;15.30;;;9.07;;
68108;SDS011;54893;49.864;19.084;2023-07-09T22:45:23;17.80;;;9.50;;
68108;SDS011;54893;49.864;19.084;2023-07-09T22:50:28;15.17;;;8.97;;
68108;SDS011;54893;49.864;19.084;2023-07-09T23:00:33;18.13;;;10.00;;
68108;SDS011;54893;49.864;19.084;2023-07-09T23:05:37;16.50;;;9.50;;
68108;SDS011;54893;49.864;19.084;2023-07-09T23:10:38;19.27;;;10.40;;
68108;SDS011;54893;49.864;19.084;2023-07-09T23:15:38;17.47;;;9.43;;
68108;SDS011;54893;49.864;19.084;2023-07-09T23:20:39;16.15;;;10.27;;
68108;SDS011;54893;49.864;19.084;2023-07-09T23:25:39;18.83;;;9.93;;
68108;SDS011;54893;49.864;19.084;2023-07-09T23:30:40;16.27;;;10.13;;
68108;SDS011;54893;49.864;19.084;2023-07-09T23:35:42;17.67;;;10.07;;
68108;SDS011;54893;49.864;19.084;2023-07-09T23:40:43;14.10;;;8.60;;
68108;SDS011;54893;49.864;19.084;2023-07-09T23:45:43;14.53;;;8.50;;
68108;SDS011;54893;49.864;19.084;2023-07-09T23:50:44;13.00;;;7.87;;
68108;SDS011;54893;49.864;19.084;2023-07-09T23:55:44;12.50;;;7.47;;
